• Join FlightAware (Why Join?)
  • Login
  • US Flag 
07:57PM EDT


 

Airport Tracker/Info


-or-


 

Live Flight TrackerFlight Track Log ✈ N913CF ✈ 07-May-2013 ✈ KNYL - KSDL

Flight Track Log - Related Links

Times and Time Zones

All times are in EDT time to prevent confusion due to time zone crossing. See the N913CF flight status page for this flight to view local times or setup timezone preferences in your user account.

Time Position Orientation Groundspeed Altitude Reporting Facility
EDT Latitude Longitude Course Direction KTS MPH feet Rate Location/Type
05:16PM 32.6408 -114.6225 228° Southwest 102 117 900  Level Los Angeles Center
05:17PM 32.6289 -114.6383 228° Southwest 108 124 1,400 840 Climbing Los Angeles Center
05:18PM 32.6583 -114.6456 348° North 122 140 2,400 840 Climbing Los Angeles Center
05:18PM 32.6603 -114.6422 55° Northeast 117 135 2,500 840 Climbing Los Angeles Center
05:19PM 32.6919 -114.6317 16° North 133 153 3,300 1,020 Climbing Los Angeles Center
05:19PM 32.7019 -114.6264 24° Northeast 131 151 3,600 900 Climbing Los Angeles Center
05:20PM 32.7378 -114.6103 21° North 136 157 4,500 900 Climbing Los Angeles Center
05:21PM 32.7478 -114.5658 75° East 156 180 5,300 840 Climbing Los Angeles Center
05:22PM 32.7644 -114.5119 70° East 152 175 6,300 840 Climbing Los Angeles Center
05:23PM 32.7697 -114.4689 82° East 159 183 7,100 840 Climbing Los Angeles Center
05:23PM 32.7719 -114.4603 73° East 158 182 7,200 900 Climbing Los Angeles Center
05:24PM 32.7717 -114.4125 90° East 161 185 8,000 840 Climbing Los Angeles Center
05:24PM 32.7706 -114.4067 103° East 162 186 8,100 660 Climbing Los Angeles Center
05:25PM 32.7714 -114.3522 89° East 165 190 8,900 540 Climbing Los Angeles Center
05:26PM 32.7719 -114.3033 89° East 185 213 9,000  Climbing Los Angeles Center
05:26PM 32.7694 -114.2753 96° East 190 219 8,900 -120 Descending Los Angeles Center
05:27PM 32.7719 -114.2375 85° East 198 228 8,900  Level Los Angeles Center
05:27PM 32.7719 -114.2094 90° East 197 227 8,900 60 Level Los Angeles Center
05:28PM 32.7731 -114.1661 88° East 201 231 9,000  Climbing Los Angeles Center
05:28PM 32.7731 -114.1417 90° East 204 235 8,900 60 Descending Los Angeles Center
05:29PM 32.7736 -114.1028 89° East 203 234 9,100 480 Climbing Los Angeles Center
05:29PM 32.7736 -114.0767 90° East 200 230 9,400 780 Climbing Los Angeles Center
05:30PM 32.7744 -114.0417 88° East 193 222 9,900 720 Climbing Los Angeles Center
05:30PM 32.7778 -114.0147 82° East 191 220 10,200 780 Climbing Los Angeles Center
05:31PM 32.7753 -113.9806 95° East 186 214 10,700 720 Climbing Los Angeles Center
05:31PM 32.7783 -113.9472 84° East 189 217 11,000 240 Climbing Los Angeles Center
05:32PM 32.7858 -113.9033 78° East 203 234 11,000 -60 Level Albuquerque Center
05:33PM 32.7964 -113.8283 80° East 225 259 10,900  Descending Albuquerque Center
05:34PM 32.8081 -113.7575 79° East 221 254 11,000  Climbing Albuquerque Center
05:35PM 32.8172 -113.6883 81° East 215 247 11,000  Level Albuquerque Center
05:36PM 32.8292 -113.6025 81° East 217 250 11,000  Level Albuquerque Center
05:37PM 32.8400 -113.5303 80° East 220 253 11,000  Level Albuquerque Center
05:38PM 32.8497 -113.4611 80° East 215 247 11,000  Level Albuquerque Center
05:39PM 32.8589 -113.3919 81° East 213 245 11,000  Level Albuquerque Center
05:40PM 32.8864 -113.3364 59° Northeast 219 252 11,000  Level Albuquerque Center
05:41PM 32.9389 -113.3050 27° Northeast 213 245 11,000  Level Albuquerque Center
05:42PM 32.9931 -113.2744 25° Northeast 214 246 11,000  Level Albuquerque Center
05:43PM 33.0572 -113.2378 26° Northeast 213 245 11,000  Level Albuquerque Center
05:49PM 33.3720 -113.0550 26° Northeast 210 242 11,100  Climbing FlightAware
05:50PM 33.4030 -113.0320 32° Northeast 212 244 11,100  Level FlightAware
05:50PM 33.4300 -112.9930 50° Northeast 212 244 11,100 -120 Level FlightAware
05:51PM 33.4570 -112.9560 49° Northeast 213 245 11,000 -180 Descending FlightAware
05:52PM 33.4880 -112.9110 50° Northeast 220 253 10,900 -480 Descending FlightAware
05:53PM 33.5150 -112.8730 50° Northeast 225 259 10,400 -660 Descending FlightAware
05:53PM 33.5460 -112.8300 49° Northeast 224 258 10,000 -600 Descending FlightAware
05:54PM 33.5580 -112.8120 51° Northeast 226 260 9,800 -660 Descending FlightAware
05:54PM 33.5820 -112.7800 48° Northeast 217 250 9,400 -720 Descending FlightAware
05:55PM 33.5920 -112.7660 49° Northeast 210 242 9,200 -1,080 Descending FlightAware
05:55PM 33.6080 -112.7440 49° Northeast 194 223 8,700 -900 Descending FlightAware
05:55PM 33.6250 -112.7190 51° Northeast 192 221 8,400 -660 Descending FlightAware
05:56PM 33.6480 -112.6890 47° Northeast 192 221 8,000 -360 Descending FlightAware
05:57PM 33.6660 -112.6640 49° Northeast 192 221 8,000 -540 Level FlightAware
05:57PM 33.6690 -112.6590 54° Northeast 184 212 7,600 -1,380 Descending FlightAware
05:57PM 33.6920 -112.6270 49° Northeast 185 213 7,100 -840 Descending FlightAware
05:58PM 33.7160 -112.5950 48° Northeast 182 209 6,600 -720 Descending FlightAware
05:58PM 33.7310 -112.5740 49° Northeast 187 215 6,300 -660 Descending FlightAware
05:59PM 33.7470 -112.5510 50° Northeast 180 207 6,000 -420 Descending FlightAware
05:59PM 33.7560 -112.5390 48° Northeast 165 190 6,000  Level FlightAware
05:59PM 33.7580 -112.5310 73° East 156 180 6,000  Level FlightAware
06:00PM 33.7600 -112.5060 84° East 169 194 6,000  Level FlightAware
06:00PM 33.7620 -112.4760 85° East 169 194 6,000  Level FlightAware
06:01PM 33.7630 -112.4530 87° East 164 189 6,000  Level FlightAware
06:01PM 33.7640 -112.4250 88° East 166 191 6,000 60 Level FlightAware
06:02PM 33.7660 -112.3960 85° East 177 204 6,100  Climbing FlightAware
06:02PM 33.7670 -112.3710 87° East 172 198 6,000 -120 Descending FlightAware
06:03PM 33.7690 -112.3450 85° East 175 201 6,000  Level FlightAware
06:03PM 33.7710 -112.3190 85° East 178 205 6,000  Level FlightAware
06:03PM 33.7720 -112.3040 85° East 182 209 6,000  Level FlightAware
06:04PM 33.7710 -112.2740 92° East 177 204 6,000  Level FlightAware
06:04PM 33.7690 -112.2540 97° East 176 203 6,000  Level FlightAware
06:05PM 33.7670 -112.2210 94° East 176 203 6,000  Level FlightAware
06:05PM 33.7650 -112.1920 95° East 173 199 6,000  Level FlightAware
06:06PM 33.7620 -112.1670 98° East 170 196 6,000 120 Level FlightAware
06:06PM 33.7620 -112.1590 90° East 169 194 6,100  Climbing FlightAware
06:06PM 33.7590 -112.1250 96° East 172 198 6,000 -120 Descending FlightAware
06:07PM 33.7560 -112.1010 99° East 169 194 6,000  Level FlightAware
06:07PM 33.7540 -112.0730 95° East 167 192 6,000  Level FlightAware
06:08PM 33.7500 -112.0510 102° East 169 194 6,000 -300 Level FlightAware
06:08PM 33.7470 -112.0380 106° East 168 193 5,800 -840 Descending FlightAware
06:09PM 33.7390 -112.0120 110° East 170 196 5,400 -780 Descending FlightAware
06:09PM 33.7360 -112.0030 112° Southeast 171 197 5,300 -600 Descending FlightAware
06:09PM 33.7250 -111.9760 116° Southeast 169 194 5,000 -660 Descending FlightAware
06:10PM 33.7180 -111.9580 115° Southeast 127 146 4,700 -660 Descending FlightAware
06:10PM 33.7110 -111.9380 113° Southeast 135 155 4,400 -780 Descending FlightAware
06:11PM 33.7040 -111.9220 118° Southeast 122 140 4,000 -780 Descending FlightAware
06:11PM 33.6970 -111.9060 118° Southeast 129 148 3,700 -840 Descending FlightAware
06:11PM 33.6900 -111.8950 127° Southeast 134 154 3,400 -840 Descending FlightAware
06:12PM 33.6790 -111.8760 125° Southeast 142 163 3,100 -720 Descending FlightAware
06:12PM 33.6720 -111.8700 144° Southeast 122 140 2,900 -420 Descending FlightAware
06:13PM 33.6580 -111.8670 170° South 116 133 2,800 -960 Descending FlightAware
06:13PM 33.6500 -111.8833 170° South 103 119 2,200 -900 Descending Phoenix TRACON
06:14PM 33.6325 -111.8997 218° Southwest 102 117 1,500 -600 Descending Albuquerque Center